Embudo, NM

5:09 AM MDT on September 23, 2014 (GMT -0600)
Velarde | Change Station
CLOSE
Current Station
Personal Weather Station
Location: Velarde, NM
Elevation: 5781 ft
Nearby Weather Stations

Elev 5781 ft 36.16 °N, 105.97 °W | Updated 2 minutes ago

Overcast
Overcast
62.1 °F
Feels Like 62.1 °F
N
1.0
Wind Variable Wind from NE
Gusts 2.0 mph

Today
High -- | Low -- °F
--% Chance of Precip.
Yesterday
High -- | Low -- °F
Precip. -- in
6:52 AM 6:59 PM
Waning Crescent, 1% visible
Pressure 30.34 in
Visibility 1.0 miles
Clouds Overcast 200 ft
Dew Point 58 °F
Humidity 86%
Rainfall 0.00 in
Snow Depth 0 in , 1 in , 0 in
UV 0 out of 12
Pollen 2.60 out of 12
Air Quality Not available.
Flu Activity Not available.
METAR KLAM 231055Z AUTO 20006KT 1SM BR OVC002 13/13 A3034 RMK AO2 T01300130

More Conditions Fewer Conditions

Pressure 30.34 in
Visibility 1.0 miles
Clouds Overcast 200 ft
Dew Point 58 °F
Humidity 86%
Rainfall 0.00 in
Snow Depth 0 in , 1 in , 0 in
UV 0 out of 12
Pollen 2.60 out of 12
Air Quality Not available.
Flu Activity Not available.
METAR KLAM 231055Z AUTO 20006KT 1SM BR OVC002 13/13 A3034 RMK AO2 T01300130

More Conditions Fewer Conditions

Nowcast | as of 4:55 am MDT on September 23, 2014

Through 7 am MDT...isolated showers and perhaps a short lived thunderstorm or two will continue to pop up from time to time... mainly east of a line from Dulce to Crownpoint. Movement will be toward the east. Expect light to moderate rain with this activity... though any storm that might develop may produce a brief downpour. Rainfall amounts will range from just a trace up to as much as two tenths of an inch.

×

10-Day Weather Forecast

Almanac

Astronomy

Sep. 23, 2014 Rise Set
Actual Time 6:52 AM MDT 6:59 PM MDT
Civil Twilight 6:27 AM MDT 7:24 PM MDT
Nautical Twilight 5:57 AM MDT 7:54 PM MDT
Astronomical Twilight 5:26 AM MDT 8:24 PM MDT
Moon 6:19 AM MDT 6:40 PM MDT
Length of Visible Light 12h 57m
Length of Day
12h 06m
Tomorrow will be 2m 18s shorter.
Waning Crescent, 1% of the Moon is Illuminated
Today
Waning Crescent
Sep 24
New
Oct 1
First Quarter
Oct 8
Full
Oct 15
Last Quarter

Today's Extremes

State Highs State Lows

Community

WunderPhotos

Upload Photos

1,755,645 photos uploaded!

Nearby

Snow Depth

Station Depth Elevation
Red River Pass #2 0 in 9850 ft
Chamita 0 in 8400 ft
North Costilla 1 in 10600 ft
Signal Peak 1 in 8360 ft
Rice Park 0 in 8460 ft

Earthquake Activity

City Distance Mag. Time & Date
No recent earthquake activity has been reported nearby.
Minimum magnitude displayed is 2.5.

Coastal Water Temperatures

Place Temperature
No Stations Reporting

Nearby Weather Stations